Time;durP1;ratioP1;P1;durP2;ratioP2;P2;SDS_P1;SDS_P2;PMS_P1;PMS_P2;Temp;Humidity;BMP_temperature;BMP_pressure;BME280_temperature;BME280_humidity;BME280_pressure;Samples;Min_cycle;Max_cycle;Signal;HPM_P1;HPM_P2
2024/02/06 00:00:52;;;;;;;;;4.60;4.00;;;;;13.72;100.00;98116.22;6239838;28;96280;-53
2024/02/06 00:03:55;;;;;;;;;6.00;6.00;;;;;13.61;100.00;98122.63;6238939;28;96320;-53
2024/02/06 00:06:58;;;;;;;;;5.00;5.00;;;;;13.66;100.00;98122.69;6239738;28;96336;-53
2024/02/06 00:10:03;;;;;;;;;7.00;6.00;;;;;13.70;100.00;98129.19;6244345;27;97822;-53
2024/02/06 00:13:06;;;;;;;;;7.00;6.00;;;;;13.67;100.00;98104.53;6264874;27;96166;-52
2024/02/06 00:16:12;;;;;;;;;6.00;5.00;;;;;13.91;100.00;98127.44;6245032;27;96692;-52
2024/02/06 00:19:15;;;;;;;;;5.40;5.40;;;;;13.91;100.00;98127.44;6247868;27;96271;-53
2024/02/06 00:22:18;;;;;;;;;6.00;6.00;;;;;14.00;100.00;98136.72;6274047;27;96269;-54
2024/02/06 00:25:23;;;;;;;;;4.20;4.20;;;;;13.93;100.00;98129.91;6267564;27;96409;-55
2024/02/06 00:28:26;;;;;;;;;6.00;5.00;;;;;13.91;100.00;98137.47;6236994;28;96725;-55
2024/02/06 00:31:29;;;;;;;;;6.20;4.80;;;;;13.90;100.00;98128.53;6214793;28;96956;-55
2024/02/06 00:34:32;;;;;;;;;5.00;5.00;;;;;13.85;100.00;98128.50;6234998;28;96325;-55
2024/02/06 00:37:36;;;;;;;;;10.00;9.00;;;;;13.84;100.00;98116.84;6253333;28;96478;-55
2024/02/06 00:40:40;;;;;;;;;6.00;6.00;;;;;13.80;100.00;98131.16;6265759;27;96087;-55
2024/02/06 00:43:44;;;;;;;;;8.00;7.00;;;;;13.78;100.00;98130.63;6281627;27;96289;-55
2024/02/06 00:46:47;;;;;;;;;6.00;5.00;;;;;13.80;100.00;98126.56;6285824;27;96429;-55
2024/02/06 00:49:50;;;;;;;;;5.40;5.00;;;;;13.94;100.00;98121.50;6266671;27;96927;-55
2024/02/06 00:52:54;;;;;;;;;4.40;4.40;;;;;13.84;100.00;98124.13;6285709;27;96302;-54
2024/02/06 00:55:58;;;;;;;;;5.00;4.60;;;;;13.86;100.00;98113.88;6285699;27;96309;-55
2024/02/06 00:59:01;;;;;;;;;6.00;5.00;;;;;13.92;100.00;98122.84;6285052;27;96496;-55
2024/02/06 01:02:04;;;;;;;;;4.00;4.00;;;;;13.78;100.00;98122.50;6264903;27;96566;-55
2024/02/06 01:05:09;;;;;;;;;5.00;5.00;;;;;13.75;100.00;98112.97;6228317;28;96878;-55
2024/02/06 01:08:12;;;;;;;;;7.00;6.00;;;;;13.70;100.00;98117.53;6245405;28;96677;-55
2024/02/06 01:11:17;;;;;;;;;4.40;4.00;;;;;13.76;100.00;98117.34;6260952;28;96295;-55
2024/02/06 01:14:20;;;;;;;;;4.00;3.00;;;;;13.73;100.00;98120.53;6260640;28;96443;-55
2024/02/06 01:17:23;;;;;;;;;3.40;3.00;;;;;13.69;100.00;98102.38;6260904;28;96318;-55
2024/02/06 01:20:26;;;;;;;;;4.00;4.00;;;;;13.73;100.00;98117.03;6219941;28;98366;-55
2024/02/06 01:23:29;;;;;;;;;4.60;3.00;;;;;13.73;100.00;98120.53;6235244;28;96294;-55
2024/02/06 01:26:33;;;;;;;;;5.00;4.00;;;;;13.75;100.00;98123.00;6235170;28;96294;-55
2024/02/06 01:29:37;;;;;;;;;4.40;3.00;;;;;13.66;100.00;98121.84;6235069;28;96316;-55
2024/02/06 01:32:40;;;;;;;;;4.25;2.00;;;;;13.47;100.00;98113.31;6234021;28;96372;-54
2024/02/06 01:35:43;;;;;;;;;4.00;4.00;;;;;13.42;100.00;98116.81;6240002;28;96397;-53
2024/02/06 01:38:46;;;;;;;;;6.00;5.00;;;;;13.46;100.00;98108.97;6229468;28;96583;-53
2024/02/06 01:41:51;;;;;;;;;8.00;6.00;;;;;13.28;100.00;98106.69;6189324;28;96374;-53
2024/02/06 01:44:54;;;;;;;;;5.00;4.00;;;;;13.27;100.00;98113.16;6189484;28;96652;-53
2024/02/06 01:47:57;;;;;;;;;9.00;8.00;;;;;13.22;100.00;98097.69;6188090;28;96447;-53
2024/02/06 01:51:02;;;;;;;;;5.00;4.00;;;;;13.16;100.00;98097.88;6203980;28;96460;-53
2024/02/06 01:54:06;;;;;;;;;6.40;6.00;;;;;13.16;100.00;98101.41;6213568;28;96407;-55
2024/02/06 01:57:10;;;;;;;;;3.80;3.40;;;;;13.20;100.00;98105.22;6223304;28;96370;-53
2024/02/06 02:00:15;;;;;;;;;3.40;3.00;;;;;13.10;100.00;98094.28;6213944;28;96386;-53
2024/02/06 02:03:19;;;;;;;;;4.40;3.60;;;;;13.11;100.00;98095.97;6252675;22;96974;-54
2024/02/06 02:06:23;;;;;;;;;3.00;2.00;;;;;13.20;100.00;98105.22;6271573;27;96806;-53
2024/02/06 02:09:28;;;;;;;;;3.40;3.40;;;;;12.96;100.00;98088.47;6288051;27;96382;-53
2024/02/06 02:12:35;;;;;;;;;2.00;2.00;;;;;13.13;100.00;98095.72;6283588;27;96329;-53
2024/02/06 02:15:39;;;;;;;;;3.00;3.00;;;;;13.15;100.00;98086.25;6266713;27;96908;-53
2024/02/06 02:18:42;;;;;;;;;4.00;4.00;;;;;13.18;100.00;98091.16;6297293;27;96494;-52
2024/02/06 02:21:47;;;;;;;;;3.00;3.00;;;;;13.20;100.00;98080.88;6291748;27;96264;-53
2024/02/06 02:24:51;;;;;;;;;6.00;5.00;;;;;13.24;100.00;98094.72;6289028;27;96346;-52
2024/02/06 02:27:55;;;;;;;;;6.75;4.00;;;;;13.12;100.00;98096.78;6288721;27;96418;-53
2024/02/06 02:30:58;;;;;;;;;4.00;3.00;;;;;13.20;100.00;98091.69;6289663;27;96467;-53
2024/02/06 02:34:02;;;;;;;;;3.25;3.25;;;;;13.06;100.00;98085.06;6288478;27;96343;-53
2024/02/06 02:37:06;;;;;;;;;4.00;4.00;;;;;13.11;100.00;98087.00;6289035;27;96295;-52
2024/02/06 02:40:10;;;;;;;;;4.00;3.00;;;;;13.12;100.00;98088.66;6288193;27;96361;-53
2024/02/06 02:43:13;;;;;;;;;5.00;4.00;;;;;13.13;100.00;98093.00;6292340;27;96653;-56
2024/02/06 02:46:16;;;;;;;;;5.60;4.60;;;;;13.04;100.00;98100.75;6292284;27;97624;-56
2024/02/06 02:49:19;;;;;;;;;4.00;4.00;;;;;13.14;100.00;98094.66;6293149;27;96311;-56
2024/02/06 02:52:24;;;;;;;;;3.80;2.80;;;;;13.09;100.00;98097.28;6293767;27;97610;-55
2024/02/06 02:55:27;;;;;;;;;2.60;2.60;;;;;12.96;100.00;98099.31;6292579;27;96679;-56
2024/02/06 02:58:30;;;;;;;;;3.00;2.60;;;;;12.95;100.00;98091.47;6274313;27;96292;-56
2024/02/06 03:01:33;;;;;;;;;4.00;4.00;;;;;12.88;100.00;98091.66;6292521;27;97507;-55
2024/02/06 03:04:37;;;;;;;;;5.00;4.00;;;;;12.78;100.00;98086.16;6292765;27;96417;-56
2024/02/06 03:07:42;;;;;;;;;5.00;5.00;;;;;12.72;100.00;98086.34;6292453;27;96209;-55
2024/02/06 03:10:45;;;;;;;;;6.00;5.00;;;;;12.81;100.00;98082.09;6291420;27;96608;-56
2024/02/06 03:13:49;;;;;;;;;4.60;3.60;;;;;12.78;100.00;98088.84;6292461;27;96430;-56
2024/02/06 03:16:52;;;;;;;;;3.25;3.00;;;;;12.77;100.00;98078.28;6292772;27;96495;-56
2024/02/06 03:19:55;;;;;;;;;4.40;3.20;;;;;12.79;100.00;98082.38;6291850;27;96961;-56
2024/02/06 03:23:00;;;;;;;;;5.40;5.40;;;;;12.73;100.00;98083.41;6291462;27;96826;-56
2024/02/06 03:26:03;;;;;;;;;5.75;4.00;;;;;12.74;100.00;98079.63;6292274;27;96274;-56
2024/02/06 03:29:06;;;;;;;;;6.40;5.00;;;;;12.77;100.00;98083.69;6292201;27;96403;-56
2024/02/06 03:32:09;;;;;;;;;3.50;3.50;;;;;12.79;100.00;98079.69;6291563;27;96349;-55
2024/02/06 03:35:12;;;;;;;;;5.00;4.00;;;;;12.80;100.00;98075.09;6289885;27;96310;-55
2024/02/06 03:38:18;;;;;;;;;6.80;6.80;;;;;12.81;100.00;98076.69;6291799;27;96269;-56
2024/02/06 03:41:21;;;;;;;;;3.80;3.00;;;;;12.70;100.00;98077.69;6292498;27;96744;-56
2024/02/06 03:44:25;;;;;;;;;4.00;3.60;;;;;12.66;100.00;98071.94;6291192;27;96507;-56
2024/02/06 03:47:28;;;;;;;;;4.40;3.00;;;;;12.57;100.00;98074.28;6292073;27;96290;-55
2024/02/06 03:50:31;;;;;;;;;2.80;2.00;;;;;12.66;100.00;98079.28;6290491;27;96392;-56
2024/02/06 03:53:36;;;;;;;;;4.00;3.00;;;;;12.65;100.00;98078.44;6290120;27;96616;-55
2024/02/06 03:56:39;;;;;;;;;3.00;3.00;;;;;12.64;100.00;98067.88;6289881;27;97008;-55
2024/02/06 03:59:42;;;;;;;;;3.60;3.60;;;;;12.61;100.00;98076.50;6290168;27;96411;-55
2024/02/06 04:02:45;;;;;;;;;4.00;4.00;;;;;12.63;100.00;98072.47;6289669;27;96899;-55
2024/02/06 04:05:48;;;;;;;;;4.00;3.00;;;;;12.69;100.00;98071.47;6289169;27;96795;-55
2024/02/06 04:08:53;;;;;;;;;4.60;4.00;;;;;12.62;100.00;98076.22;6287408;27;96378;-55
2024/02/06 04:11:56;;;;;;;;;2.00;2.00;;;;;12.56;100.00;98077.25;6288524;27;96335;-55
2024/02/06 04:15:00;;;;;;;;;4.00;3.00;;;;;12.48;100.00;98073.13;6290016;27;96956;-55
2024/02/06 04:18:04;;;;;;;;;3.00;3.00;;;;;12.60;100.00;98073.00;6288317;27;96827;-55
2024/02/06 04:21:08;;;;;;;;;3.00;3.00;;;;;12.64;100.00;98078.69;6272528;27;96621;-55
2024/02/06 04:24:13;;;;;;;;;4.20;4.00;;;;;12.64;100.00;98081.41;6290483;27;96344;-55
2024/02/06 04:27:16;;;;;;;;;4.00;3.67;;;;;12.54;100.00;98080.22;6290480;27;96971;-55
2024/02/06 04:30:19;;;;;;;;;4.00;3.00;;;;;12.46;100.00;98077.94;6290279;27;96439;-55
2024/02/06 04:33:22;;;;;;;;;4.00;4.00;;;;;12.45;100.00;98062.81;6271499;27;96331;-55
2024/02/06 04:36:25;;;;;;;;;4.00;4.00;;;;;12.42;100.00;98082.22;6289637;27;96462;-55
2024/02/06 04:39:29;;;;;;;;;4.50;4.00;;;;;12.28;100.00;98059.38;6289679;27;96371;-55
2024/02/06 04:42:34;;;;;;;;;3.00;3.00;;;;;12.36;100.00;98085.16;6290837;27;96382;-55
2024/02/06 04:45:37;;;;;;;;;5.50;4.00;;;;;12.36;100.00;98083.28;6288845;27;96439;-55
2024/02/06 04:48:40;;;;;;;;;3.00;2.00;;;;;12.37;100.00;98084.88;6286682;27;96489;-55
2024/02/06 04:51:43;;;;;;;;;4.00;4.00;;;;;12.27;100.00;98081.22;6285818;27;97577;-55
2024/02/06 04:54:47;;;;;;;;;4.60;4.00;;;;;12.31;100.00;98076.97;6284844;27;96722;-55
2024/02/06 04:57:51;;;;;;;;;3.20;2.20;;;;;12.35;100.00;98080.81;6285546;27;96620;-55
2024/02/06 05:00:54;;;;;;;;;4.60;4.00;;;;;12.35;100.00;98078.09;6284618;27;96339;-55
2024/02/06 05:03:57;;;;;;;;;4.00;3.00;;;;;12.35;100.00;98080.81;6288084;27;96536;-55
2024/02/06 05:07:00;;;;;;;;;7.00;6.00;;;;;12.32;100.00;98074.00;6289738;27;96379;-55
2024/02/06 05:10:10;;;;;;;;;4.00;3.20;;;;;12.33;100.00;98075.66;6270647;27;96434;-55
2024/02/06 05:13:13;;;;;;;;;6.00;5.00;;;;;12.35;100.00;98080.81;6270712;27;96726;-55
2024/02/06 05:16:17;;;;;;;;;3.80;3.00;;;;;12.19;100.00;98066.28;6288579;27;96277;-55
2024/02/06 05:19:21;;;;;;;;;3.00;3.00;;;;;12.30;100.00;98099.66;6287224;27;96408;-55
2024/02/06 05:22:24;;;;;;;;;3.60;3.00;;;;;12.27;100.00;98082.06;6287384;27;97313;-55
2024/02/06 05:25:28;;;;;;;;;3.00;3.00;;;;;12.13;100.00;98087.03;6288292;27;96758;-55
2024/02/06 05:28:32;;;;;;;;;4.00;4.00;;;;;12.18;100.00;98077.34;6289332;27;96365;-55
2024/02/06 05:31:35;;;;;;;;;4.00;4.00;;;;;12.19;100.00;98082.50;6270246;27;96730;-55
2024/02/06 05:34:38;;;;;;;;;4.00;3.00;;;;;12.18;100.00;98088.97;6289300;27;96526;-55
2024/02/06 05:37:42;;;;;;;;;4.40;4.00;;;;;12.11;100.00;98082.97;6289084;27;96430;-55
2024/02/06 05:40:46;;;;;;;;;4.25;4.00;;;;;12.16;100.00;98085.72;6268325;27;96389;-55
2024/02/06 05:43:50;;;;;;;;;5.00;4.00;;;;;12.23;100.00;98078.22;6285149;27;97992;-55
2024/02/06 05:46:53;;;;;;;;;4.00;4.00;;;;;12.26;100.00;98080.44;6287134;27;96418;-55
2024/02/06 05:49:56;;;;;;;;;4.20;3.20;;;;;12.23;100.00;98078.22;6263533;27;96269;-55
2024/02/06 05:52:59;;;;;;;;;4.00;3.00;;;;;12.24;100.00;98087.16;6266536;27;96512;-55
2024/02/06 05:56:05;;;;;;;;;3.00;3.00;;;;;12.23;100.00;98089.03;6285032;27;96863;-55
2024/02/06 05:59:08;;;;;;;;;4.00;4.00;;;;;12.32;100.00;98089.41;6287054;27;97010;-55
2024/02/06 06:02:11;;;;;;;;;4.25;4.00;;;;;12.34;100.00;98089.97;6286193;27;96713;-55
2024/02/06 06:05:14;;;;;;;;;3.60;3.00;;;;;12.38;100.00;98086.53;6286056;27;96459;-55
2024/02/06 06:08:17;;;;;;;;;4.00;4.00;;;;;12.27;100.00;98084.75;6286342;27;96658;-55
2024/02/06 06:11:22;;;;;;;;;5.00;4.00;;;;;12.41;100.00;98086.00;6278557;27;96592;-55
2024/02/06 06:14:25;;;;;;;;;4.00;3.00;;;;;12.46;100.00;98087.97;6284329;27;97208;-55
2024/02/06 06:17:28;;;;;;;;;4.50;4.00;;;;;12.45;100.00;98089.03;6290873;27;96612;-55
2024/02/06 06:20:31;;;;;;;;;5.00;4.00;;;;;12.40;100.00;98099.78;6273442;27;97152;-55
2024/02/06 06:23:34;;;;;;;;;4.00;4.00;;;;;12.38;100.00;98096.50;6291416;27;96260;-56
2024/02/06 06:26:40;;;;;;;;;5.00;4.00;;;;;12.33;100.00;98101.84;6291278;27;96734;-56
2024/02/06 06:29:45;;;;;;;;;5.00;4.00;;;;;12.38;100.00;98113.53;6291374;27;96566;-55
2024/02/06 06:32:49;;;;;;;;;5.00;3.80;;;;;12.45;100.00;98119.59;6291208;27;96327;-55
2024/02/06 06:35:52;;;;;;;;;5.00;4.40;;;;;12.53;100.00;98110.22;6291825;27;96798;-55
2024/02/06 06:38:57;;;;;;;;;6.40;5.00;;;;;12.54;100.00;98106.44;6291907;27;96935;-56
2024/02/06 06:42:02;;;;;;;;;6.50;5.50;;;;;12.53;100.00;98104.81;6291927;27;96495;-55
2024/02/06 06:45:06;;;;;;;;;4.60;4.00;;;;;12.48;100.00;98112.84;6290955;27;96296;-55
2024/02/06 06:48:09;;;;;;;;;6.00;4.00;;;;;12.57;100.00;98119.44;6291692;27;96284;-56
2024/02/06 06:51:12;;;;;;;;;5.80;4.80;;;;;12.55;100.00;98114.31;6292485;27;96524;-56
2024/02/06 06:54:15;;;;;;;;;5.00;5.00;;;;;12.58;100.00;98102.97;6291867;27;96287;-56
2024/02/06 06:57:20;;;;;;;;;7.00;4.00;;;;;12.74;100.00;98122.06;6292404;27;96387;-55
2024/02/06 07:00:24;;;;;;;;;5.80;4.00;;;;;12.75;100.00;98132.66;6293187;27;96850;-55
2024/02/06 07:03:27;;;;;;;;;6.00;4.00;;;;;12.71;100.00;98125.28;6292441;27;96282;-56
2024/02/06 07:06:30;;;;;;;;;6.00;5.00;;;;;12.73;100.00;98123.16;6292832;27;96615;-56
2024/02/06 07:09:35;;;;;;;;;7.00;6.00;;;;;12.79;100.00;98132.94;6275160;27;96876;-56
2024/02/06 07:12:40;;;;;;;;;4.80;4.20;;;;;12.82;100.00;98127.84;6292875;27;96304;-56
2024/02/06 07:15:43;;;;;;;;;6.60;6.00;;;;;12.79;100.00;98132.94;6292919;27;96457;-56
2024/02/06 07:18:46;;;;;;;;;6.25;6.00;;;;;12.74;100.00;98131.00;6292695;27;96368;-56
2024/02/06 07:21:55;;;;;;;;;6.20;5.20;;;;;12.88;100.00;98140.34;6292653;27;96416;-52
2024/02/06 07:25:00;;;;;;;;;5.25;5.00;;;;;12.87;100.00;98138.72;6288151;27;97017;-53
2024/02/06 07:28:05;;;;;;;;;5.00;5.00;;;;;12.76;100.00;98147.78;6271727;27;97165;-53
2024/02/06 07:31:08;;;;;;;;;8.00;7.00;;;;;12.89;100.00;98141.19;6292831;27;96341;-53
2024/02/06 07:34:12;;;;;;;;;6.00;5.60;;;;;12.90;100.00;98145.53;6292781;27;97001;-53
2024/02/06 07:37:15;;;;;;;;;7.00;6.00;;;;;12.85;100.00;98143.56;6292495;27;96906;-53
2024/02/06 07:40:18;;;;;;;;;6.00;6.00;;;;;12.94;100.00;98146.66;6273666;27;96416;-53
2024/02/06 07:43:23;;;;;;;;;8.00;7.00;;;;;12.78;100.00;98153.78;6292550;27;96370;-53
2024/02/06 07:46:26;;;;;;;;;7.00;6.00;;;;;12.78;100.00;98150.25;6292153;27;96355;-53
2024/02/06 07:49:29;;;;;;;;;8.33;7.00;;;;;12.80;100.00;98159.75;6292561;27;96356;-52
2024/02/06 07:52:32;;;;;;;;;7.00;6.00;;;;;12.87;100.00;98152.25;6292201;27;96279;-52
2024/02/06 07:55:35;;;;;;;;;6.80;6.00;;;;;12.81;100.00;98155.97;6292303;27;96326;-52
2024/02/06 07:58:40;;;;;;;;;8.00;7.00;;;;;12.86;100.00;98157.91;6292242;27;96949;-53
2024/02/06 08:01:43;;;;;;;;;6.80;6.40;;;;;12.76;100.00;98147.78;6291746;27;96296;-53
2024/02/06 08:04:48;;;;;;;;;8.00;7.40;;;;;12.92;100.00;98159.59;6292185;27;96322;-53
2024/02/06 08:07:51;;;;;;;;;7.75;7.00;;;;;12.98;100.00;98158.59;6291943;27;96410;-52
2024/02/06 08:10:55;;;;;;;;;7.00;7.00;;;;;12.99;100.00;98168.34;6273493;27;99245;-53
2024/02/06 08:14:01;;;;;;;;;9.00;8.00;;;;;12.99;100.00;98150.22;6291936;27;96282;-53
2024/02/06 08:17:04;;;;;;;;;7.80;7.00;;;;;13.08;100.00;98160.56;6292107;27;96340;-53
2024/02/06 08:20:09;;;;;;;;;8.40;8.00;;;;;13.12;100.00;98176.06;6291342;27;96440;-53
2024/02/06 08:23:16;;;;;;;;;11.00;9.40;;;;;13.06;100.00;98151.88;6291651;27;96285;-53
2024/02/06 08:26:19;;;;;;;;;7.00;6.20;;;;;13.01;100.00;98152.66;6291048;27;96580;-52
2024/02/06 08:29:24;;;;;;;;;8.00;7.00;;;;;12.97;100.00;98154.25;6289566;27;96270;-53
2024/02/06 08:32:27;;;;;;;;;5.80;4.60;;;;;12.89;100.00;98152.81;6297955;27;97050;-54
2024/02/06 08:35:31;;;;;;;;;6.25;5.25;;;;;13.09;100.00;98164.91;6315970;27;96415;-55
2024/02/06 08:38:34;;;;;;;;;9.80;9.00;;;;;13.08;100.00;98163.28;6315002;27;96349;-55
2024/02/06 08:41:37;;;;;;;;;7.00;6.80;;;;;13.19;100.00;98157.75;6316036;27;96341;-55
2024/02/06 08:44:42;;;;;;;;;7.00;6.00;;;;;13.12;100.00;98137.38;6317192;27;97104;-55
2024/02/06 08:47:45;;;;;;;;;7.00;6.40;;;;;13.12;100.00;98157.13;6315662;27;96338;-55
2024/02/06 08:50:49;;;;;;;;;7.00;6.00;;;;;13.10;100.00;98158.41;6315283;27;96255;-55
2024/02/06 08:53:53;;;;;;;;;7.00;5.60;;;;;13.10;100.00;98177.34;6315837;27;96427;-55
2024/02/06 08:56:57;;;;;;;;;5.00;5.00;;;;;13.08;100.00;98166.00;6314966;27;96333;-55
2024/02/06 09:00:02;;;;;;;;;7.20;6.80;;;;;13.13;100.00;98160.66;6315205;27;96302;-55
2024/02/06 09:03:06;;;;;;;;;5.00;4.75;;;;;12.95;100.00;98143.66;6314998;27;96267;-55
2024/02/06 09:06:09;;;;;;;;;8.00;7.00;;;;;13.15;100.00;98159.31;6315589;27;96459;-55
2024/02/06 09:09:12;;;;;;;;;9.80;9.00;;;;;13.23;100.00;98160.75;6315326;27;96376;-55
2024/02/06 09:12:16;;;;;;;;;7.25;6.50;;;;;13.36;100.00;98157.63;6314959;27;96492;-55
2024/02/06 09:15:22;;;;;;;;;7.75;7.00;;;;;13.32;100.00;98168.16;6313959;27;96388;-55
2024/02/06 09:18:26;;;;;;;;;3.40;3.40;;;;;13.38;100.00;98175.25;6312790;27;96349;-55
2024/02/06 09:21:30;;;;;;;;;5.75;5.25;;;;;13.25;100.00;98174.84;6312801;27;96844;-55
2024/02/06 09:24:33;;;;;;;;;5.00;5.00;;;;;13.59;100.00;98175.41;6312784;27;96319;-55
2024/02/06 09:27:36;;;;;;;;;6.60;5.60;;;;;13.42;100.00;98176.38;6312040;27;96358;-55
2024/02/06 09:30:44;;;;;;;;;6.20;5.20;;;;;13.47;100.00;98172.06;6312918;27;96367;-55
2024/02/06 09:33:47;;;;;;;;;5.00;5.00;;;;;13.49;100.00;98180.78;6312966;27;96318;-55
2024/02/06 09:36:50;;;;;;;;;6.40;6.40;;;;;13.51;100.00;98160.47;6313420;27;96211;-55
2024/02/06 09:39:54;;;;;;;;;8.00;6.50;;;;;13.45;100.00;98186.69;6312738;27;96381;-55
2024/02/06 09:42:57;;;;;;;;;6.00;5.00;;;;;13.99;100.00;98186.56;6304811;27;96419;-53
2024/02/06 09:46:02;;;;;;;;;6.75;6.00;;;;;14.52;100.00;98176.59;6288611;27;96401;-53
2024/02/06 09:49:06;;;;;;;;;7.80;7.00;;;;;14.93;100.00;98193.88;6288645;27;96221;-53
2024/02/06 09:52:12;;;;;;;;;7.40;6.40;;;;;14.82;100.00;98184.06;6288132;27;96394;-53
2024/02/06 09:55:16;;;;;;;;;7.00;7.00;;;;;14.74;100.00;98188.09;6288560;27;96378;-53
2024/02/06 09:58:20;;;;;;;;;8.00;7.00;;;;;14.66;100.00;98194.06;6288490;27;96424;-53
2024/02/06 10:01:26;;;;;;;;;7.00;7.00;;;;;14.44;100.00;98187.97;6288159;27;96322;-53
2024/02/06 10:04:35;;;;;;;;;8.40;6.60;;;;;14.49;100.00;98177.97;6289439;27;96262;-53
2024/02/06 10:07:39;;;;;;;;;6.00;5.00;;;;;14.62;100.00;98188.31;6289151;27;96555;-53
2024/02/06 10:10:46;;;;;;;;;7.60;6.00;;;;;14.97;100.00;98168.63;6271304;27;96634;-52
2024/02/06 10:13:49;;;;;;;;;6.00;6.00;;;;;15.55;100.00;98158.44;6289808;27;96263;-53
2024/02/06 10:16:54;;;;;;;;;6.75;5.75;;;;;16.67;100.00;98178.94;6287911;27;96418;-53
2024/02/06 10:20:05;;;;;;;;;6.00;5.25;;;;;17.29;100.00;98172.09;6288741;27;96290;-53
2024/02/06 10:23:11;;;;;;;;;7.00;6.00;;;;;17.98;100.00;98168.31;6288671;27;96392;-53
2024/02/06 10:26:18;;;;;;;;;6.00;5.40;;;;;18.53;96.78;98153.25;6290439;27;96911;-53
2024/02/06 10:29:21;;;;;;;;;6.00;6.00;;;;;19.46;90.80;98166.28;6290506;27;96897;-53
2024/02/06 10:32:30;;;;;;;;;5.00;5.00;;;;;20.33;87.32;98160.97;6290901;27;96370;-53
2024/02/06 10:35:33;;;;;;;;;8.00;6.00;;;;;21.51;77.06;98147.25;6291071;27;96335;-54
2024/02/06 10:38:36;;;;;;;;;4.00;4.00;;;;;21.72;76.44;98151.13;6290702;27;96427;-53
2024/02/06 10:41:39;;;;;;;;;5.00;4.75;;;;;21.10;75.35;98159.16;6290557;27;97614;-53
2024/02/06 10:45:03;;;;;;;;;5.00;5.00;;;;;21.41;77.75;98144.75;6290397;27;96211;-54
2024/02/06 10:48:09;;;;;;;;;5.00;5.00;;;;;21.02;76.77;98139.84;6290758;27;96235;-53
2024/02/06 10:51:22;;;;;;;;;5.80;5.20;;;;;20.21;79.13;98160.66;6290389;27;96389;-53
2024/02/06 10:54:31;;;;;;;;;7.00;5.60;;;;;20.15;82.49;98148.97;6291222;27;96319;-53
2024/02/06 10:57:37;;;;;;;;;6.00;5.00;;;;;19.50;84.30;98139.97;6289930;27;96348;-53
2024/02/06 11:00:44;;;;;;;;;6.00;5.00;;;;;18.78;86.33;98136.59;6290391;27;96435;-53
2024/02/06 11:03:56;;;;;;;;;6.00;6.00;;;;;18.03;89.94;98130.88;6293050;27;96253;-53
2024/02/06 11:07:05;;;;;;;;;8.00;7.00;;;;;17.45;93.47;98121.81;6294727;27;96478;-53
2024/02/06 11:10:14;;;;;;;;;6.20;5.80;;;;;16.99;97.83;98123.25;6294327;27;96370;-53
2024/02/06 11:13:26;;;;;;;;;5.00;5.00;;;;;16.76;100.00;98122.03;6276263;27;96332;-53
2024/02/06 11:16:34;;;;;;;;;7.00;5.40;;;;;16.51;100.00;98119.38;6293786;27;96304;-53
2024/02/06 11:19:47;;;;;;;;;5.75;5.00;;;;;16.15;100.00;98096.94;6293611;27;96891;-53
2024/02/06 11:22:54;;;;;;;;;7.00;7.00;;;;;15.77;100.00;98103.81;6293747;27;96906;-52
2024/02/06 11:25:58;;;;;;;;;5.80;4.00;;;;;15.64;100.00;98088.88;6293639;27;96640;-53
2024/02/06 11:29:06;;;;;;;;;6.40;6.00;;;;;15.47;100.00;98097.28;6292366;27;96508;-53
2024/02/06 11:32:10;;;;;;;;;6.00;5.00;;;;;15.06;100.00;98104.59;6293196;27;98104;-52
2024/02/06 11:35:15;;;;;;;;;7.00;6.00;;;;;15.07;100.00;98102.69;6292889;27;96888;-53
2024/02/06 11:38:26;;;;;;;;;4.20;4.20;;;;;14.89;100.00;98100.50;6292388;27;96321;-53
2024/02/06 11:41:30;;;;;;;;;7.00;6.60;;;;;14.97;100.00;98110.81;6292604;27;96876;-53
2024/02/06 11:44:33;;;;;;;;;6.00;5.40;;;;;14.90;100.00;98085.84;6292683;27;96525;-52
2024/02/06 11:47:37;;;;;;;;;7.00;7.00;;;;;15.03;100.00;98099.72;6292346;27;96373;-53
2024/02/06 11:50:46;;;;;;;;;6.40;6.00;;;;;14.78;100.00;98091.53;6291927;27;96385;-52
2024/02/06 11:53:49;;;;;;;;;8.00;6.00;;;;;14.87;100.00;98103.47;6292062;27;96314;-53
2024/02/06 11:56:54;;;;;;;;;5.00;5.00;;;;;14.66;100.00;98101.81;6292000;27;96860;-53
2024/02/06 11:59:57;;;;;;;;;4.00;4.00;;;;;14.42;100.00;98111.47;6292124;27;97017;-53
2024/02/06 12:03:00;;;;;;;;;5.80;5.00;;;;;14.57;100.00;98098.78;6291876;27;96389;-55
2024/02/06 12:06:07;;;;;;;;;5.25;5.25;;;;;14.65;100.00;98097.47;6291006;27;96416;-55
2024/02/06 12:09:11;;;;;;;;;7.00;6.00;;;;;14.80;100.00;98100.22;6291378;27;96943;-55
2024/02/06 12:12:14;;;;;;;;;6.40;6.00;;;;;14.97;100.00;98079.06;6290949;27;96514;-55
2024/02/06 12:15:18;;;;;;;;;7.00;6.00;;;;;15.27;100.00;98085.59;6290702;27;97062;-55
2024/02/06 12:18:22;;;;;;;;;6.60;5.60;;;;;15.39;100.00;98062.53;6290558;27;96357;-55
2024/02/06 12:21:27;;;;;;;;;6.00;5.00;;;;;15.01;100.00;98071.19;6290825;27;96796;-55
2024/02/06 12:24:30;;;;;;;;;6.60;6.00;;;;;14.90;100.00;98072.28;6290637;27;96383;-55
2024/02/06 12:27:38;;;;;;;;;9.00;8.00;;;;;14.96;100.00;98065.75;6289709;27;96372;-56
2024/02/06 12:30:43;;;;;;;;;6.25;5.25;;;;;14.76;100.00;98052.97;6290776;27;96909;-55
2024/02/06 12:33:46;;;;;;;;;7.60;6.00;;;;;14.72;100.00;98058.13;6289617;27;96857;-55
2024/02/06 12:36:51;;;;;;;;;8.00;8.00;;;;;14.68;100.00;98069.78;6290345;27;97007;-55
2024/02/06 12:40:04;;;;;;;;;6.80;6.00;;;;;14.51;100.00;98066.50;6290387;27;96347;-56
2024/02/06 12:43:11;;;;;;;;;7.75;7.75;;;;;14.50;100.00;98062.97;6290536;27;96348;-55
2024/02/06 12:46:14;;;;;;;;;8.00;7.75;;;;;14.48;100.00;98061.59;6290701;27;96325;-55
2024/02/06 12:49:18;;;;;;;;;7.00;6.00;;;;;14.35;100.00;98049.31;6271010;27;97855;-55
2024/02/06 12:52:23;;;;;;;;;7.60;6.40;;;;;14.22;100.00;98057.97;6290192;27;96507;-55
2024/02/06 12:55:26;;;;;;;;;7.00;6.60;;;;;14.40;100.00;98054.81;6290131;27;96909;-55
2024/02/06 12:58:32;;;;;;;;;10.00;9.00;;;;;14.20;100.00;98063.66;6290471;27;97189;-55
2024/02/06 13:01:35;;;;;;;;;9.00;8.00;;;;;14.13;100.00;98049.50;6289499;27;96418;-55
2024/02/06 13:04:39;;;;;;;;;6.00;5.60;;;;;14.17;100.00;98050.59;6290123;27;96323;-55
2024/02/06 13:07:44;;;;;;;;;6.60;6.60;;;;;14.00;100.00;98043.75;6271534;27;96433;-55
2024/02/06 13:10:48;;;;;;;;;9.00;9.00;;;;;13.98;100.00;98043.19;6289722;27;96881;-55
2024/02/06 13:13:55;;;;;;;;;7.40;7.00;;;;;13.78;100.00;98044.72;6292508;27;96403;-55
2024/02/06 13:16:58;;;;;;;;;8.00;8.00;;;;;13.63;100.00;98047.38;6296130;27;96483;-55
2024/02/06 13:20:08;;;;;;;;;10.25;9.00;;;;;13.62;100.00;98053.84;6295328;27;96620;-55
2024/02/06 13:23:16;;;;;;;;;11.00;9.00;;;;;13.70;100.00;98057.97;6291877;27;96380;-56
2024/02/06 13:26:22;;;;;;;;;9.00;7.00;;;;;13.52;100.00;98061.91;6263319;27;96319;-55
2024/02/06 13:29:25;;;;;;;;;6.25;6.25;;;;;13.49;100.00;98058.91;6293800;27;96383;-55
2024/02/06 13:32:28;;;;;;;;;9.00;9.00;;;;;13.40;100.00;98039.63;6293472;27;96441;-56
2024/02/06 13:35:31;;;;;;;;;11.00;8.60;;;;;13.41;100.00;98062.91;6292635;27;97209;-55
2024/02/06 13:38:36;;;;;;;;;7.80;6.00;;;;;13.29;100.00;98060.38;6290455;27;96544;-55
2024/02/06 13:41:39;;;;;;;;;10.00;9.00;;;;;13.37;100.00;98056.38;6290660;27;96579;-55
2024/02/06 13:44:43;;;;;;;;;8.20;7.20;;;;;13.40;100.00;98066.69;6294422;27;96545;-56
2024/02/06 13:47:46;;;;;;;;;8.00;7.00;;;;;13.21;100.00;98054.63;6293814;27;96466;-56
2024/02/06 13:50:49;;;;;;;;;9.00;8.60;;;;;13.07;100.00;98045.28;6290798;27;97380;-55
2024/02/06 13:53:53;;;;;;;;;8.00;7.00;;;;;13.12;100.00;98061.59;6293932;27;96353;-55
2024/02/06 13:56:57;;;;;;;;;8.67;8.00;;;;;13.01;100.00;98045.25;6288926;27;97130;-55
2024/02/06 14:00:00;;;;;;;;;9.40;9.20;;;;;12.94;100.00;98041.94;6293941;27;96436;-56
2024/02/06 14:03:03;;;;;;;;;9.20;7.20;;;;;12.93;100.00;98048.44;6294022;27;96383;-55
2024/02/06 14:06:07;;;;;;;;;8.75;8.00;;;;;12.95;100.00;98046.25;6294230;27;96371;-55
2024/02/06 14:09:12;;;;;;;;;8.00;7.00;;;;;12.88;100.00;98050.28;6293631;27;96260;-55
2024/02/06 14:12:16;;;;;;;;;9.00;8.00;;;;;12.78;100.00;98047.47;6293232;27;97643;-56
2024/02/06 14:15:20;;;;;;;;;8.40;8.00;;;;;12.92;100.00;98027.03;6292389;27;96323;-55